Time;durP1;ratioP1;P1;durP2;ratioP2;P2;SDS_P1;SDS_P2;PMS_P1;PMS_P2;Temp;Humidity;BMP_temperature;BMP_pressure;BME280_temperature;BME280_humidity;BME280_pressure;Samples;Min_cycle;Max_cycle;Signal;HPM_P1;HPM_P2
2024/01/19 00:00:50;;;;;;;889.35;101.13;;;;;;;;;;5012118;28;20025;-40
2024/01/19 00:03:17;;;;;;;647.65;67.32;;;;;;;;;;5011836;28;20056;-40
2024/01/19 00:05:44;;;;;;;588.53;61.35;;;;;;;;;;5011885;28;20088;-40
2024/01/19 00:08:11;;;;;;;444.23;46.03;;;;;;;;;;5011184;28;20032;-41
2024/01/19 00:10:39;;;;;;;378.90;38.85;;;;;;;;;;5011515;28;20032;-40
2024/01/19 00:13:06;;;;;;;317.52;33.03;;;;;;;;;;5011449;28;20046;-40
2024/01/19 00:15:33;;;;;;;300.58;29.35;;;;;;;;;;5011264;28;20059;-41
2024/01/19 00:18:00;;;;;;;218.07;25.00;;;;;;;;;;5011396;28;20038;-41
2024/01/19 00:20:27;;;;;;;264.33;25.10;;;;;;;;;;5011280;28;20025;-41
2024/01/19 00:22:54;;;;;;;235.18;23.27;;;;;;;;;;5009335;28;20022;-41
2024/01/19 00:25:21;;;;;;;156.93;17.65;;;;;;;;;;5009912;28;20026;-41
2024/01/19 00:27:48;;;;;;;225.07;24.65;;;;;;;;;;5010359;28;20046;-40
2024/01/19 00:30:15;;;;;;;275.73;29.05;;;;;;;;;;5005890;28;20040;-43
2024/01/19 00:32:42;;;;;;;268.33;29.98;;;;;;;;;;5010422;28;20109;-45
2024/01/19 00:35:09;;;;;;;263.10;27.60;;;;;;;;;;5002853;28;20065;-42
2024/01/19 00:37:36;;;;;;;261.98;28.67;;;;;;;;;;5010277;28;20034;-42
2024/01/19 00:40:10;;;;;;;287.80;31.83;;;;;;;;;;5011730;28;20480;-42
2024/01/19 00:42:37;;;;;;;248.40;28.35;;;;;;;;;;5010478;28;20026;-41
2024/01/19 00:45:04;;;;;;;212.27;26.48;;;;;;;;;;5010365;28;20112;-42
2024/01/19 00:47:31;;;;;;;220.88;26.27;;;;;;;;;;5011276;28;20849;-43
2024/01/19 00:49:58;;;;;;;201.07;26.10;;;;;;;;;;5010995;28;20061;-42
2024/01/19 00:52:25;;;;;;;247.57;29.65;;;;;;;;;;5008360;28;20046;-42
2024/01/19 00:54:52;;;;;;;301.05;32.10;;;;;;;;;;5002959;28;20534;-43
2024/01/19 00:57:19;;;;;;;273.77;30.60;;;;;;;;;;5010795;28;20116;-42
2024/01/19 00:59:46;;;;;;;219.13;25.50;;;;;;;;;;5010747;28;20072;-43
2024/01/19 01:02:13;;;;;;;224.48;25.35;;;;;;;;;;5010674;28;20026;-42
2024/01/19 01:04:40;;;;;;;177.70;21.75;;;;;;;;;;5006745;28;20038;-42
2024/01/19 01:07:08;;;;;;;171.73;18.83;;;;;;;;;;5011147;28;20383;-42
2024/01/19 01:09:36;;;;;;;160.93;20.33;;;;;;;;;;5010547;28;20435;-42
2024/01/19 01:12:03;;;;;;;179.70;19.40;;;;;;;;;;5011126;28;20046;-43
2024/01/19 01:14:30;;;;;;;155.77;19.08;;;;;;;;;;5010870;28;20387;-42
2024/01/19 01:16:58;;;;;;;150.40;18.15;;;;;;;;;;5010678;28;20400;-42
2024/01/19 01:19:25;;;;;;;145.68;17.15;;;;;;;;;;5007616;28;20124;-42
2024/01/19 01:21:52;;;;;;;128.93;16.27;;;;;;;;;;5008626;28;20160;-40
2024/01/19 01:24:20;;;;;;;103.60;13.95;;;;;;;;;;5007130;28;20041;-37
2024/01/19 01:26:47;;;;;;;107.38;14.48;;;;;;;;;;5007544;28;20042;-39
2024/01/19 01:29:15;;;;;;;97.45;13.68;;;;;;;;;;5009353;28;20495;-38
2024/01/19 01:31:42;;;;;;;86.28;11.43;;;;;;;;;;5007813;28;20155;-39
2024/01/19 01:34:09;;;;;;;63.28;10.07;;;;;;;;;;5007254;28;20747;-39
2024/01/19 01:36:36;;;;;;;59.88;9.10;;;;;;;;;;5011353;28;20472;-41
2024/01/19 01:39:03;;;;;;;70.53;9.65;;;;;;;;;;4994932;28;20392;-39
2024/01/19 01:41:30;;;;;;;144.15;16.42;;;;;;;;;;4995901;28;20029;-39
2024/01/19 01:43:57;;;;;;;602.75;55.97;;;;;;;;;;5014060;28;20042;-39
2024/01/19 01:46:24;;;;;;;191.77;18.73;;;;;;;;;;5012090;28;20026;-42
2024/01/19 01:48:50;;;;;;;106.60;13.07;;;;;;;;;;5013661;28;20035;-39
2024/01/19 01:51:18;;;;;;;83.57;9.77;;;;;;;;;;5011040;28;20080;-39
2024/01/19 01:53:45;;;;;;;59.22;6.95;;;;;;;;;;4992831;28;20483;-40
2024/01/19 01:56:12;;;;;;;59.13;8.20;;;;;;;;;;5003104;28;20793;-39
2024/01/19 01:58:39;;;;;;;60.63;7.10;;;;;;;;;;5002927;28;20050;-39
2024/01/19 02:01:06;;;;;;;51.33;6.07;;;;;;;;;;5002205;28;20030;-39
2024/01/19 02:03:33;;;;;;;237.00;20.67;;;;;;;;;;5004596;28;20550;-39
2024/01/19 02:06:00;;;;;;;130.50;16.52;;;;;;;;;;4995834;28;20037;-39
2024/01/19 02:08:27;;;;;;;110.68;12.98;;;;;;;;;;5013996;28;20025;-39
2024/01/19 02:10:54;;;;;;;91.25;11.00;;;;;;;;;;5012212;28;20105;-39
2024/01/19 02:13:21;;;;;;;54.50;7.82;;;;;;;;;;5013846;28;20102;-39
2024/01/19 02:15:48;;;;;;;59.33;7.25;;;;;;;;;;5013361;28;20034;-39
2024/01/19 02:18:15;;;;;;;52.05;5.50;;;;;;;;;;5013731;28;20033;-39
2024/01/19 02:20:42;;;;;;;409.83;36.60;;;;;;;;;;5013500;28;20033;-39
2024/01/19 02:23:13;;;;;;;804.42;81.57;;;;;;;;;;5010891;28;20503;-39
2024/01/19 02:25:40;;;;;;;856.58;91.53;;;;;;;;;;5004854;28;20116;-39
2024/01/19 02:28:07;;;;;;;465.08;46.97;;;;;;;;;;4995919;28;20096;-39
2024/01/19 02:30:34;;;;;;;399.35;39.58;;;;;;;;;;5010308;28;20057;-39
2024/01/19 02:33:02;;;;;;;340.83;32.58;;;;;;;;;;5013291;28;20041;-39
2024/01/19 02:35:29;;;;;;;298.58;26.98;;;;;;;;;;5012998;28;20033;-38
2024/01/19 02:38:02;;;;;;;181.63;17.67;;;;;;;;;;4995673;28;20041;-39
2024/01/19 02:40:29;;;;;;;158.48;15.40;;;;;;;;;;5013442;28;20480;-39
2024/01/19 02:42:56;;;;;;;167.95;17.10;;;;;;;;;;5009159;28;20068;-39
2024/01/19 02:45:23;;;;;;;140.45;14.70;;;;;;;;;;5010472;28;20033;-39
2024/01/19 02:47:50;;;;;;;102.40;10.73;;;;;;;;;;5009133;28;20514;-38
2024/01/19 02:50:17;;;;;;;96.38;10.88;;;;;;;;;;5003999;28;20060;-39
2024/01/19 02:52:44;;;;;;;67.47;8.25;;;;;;;;;;5008074;28;20042;-38
2024/01/19 02:55:12;;;;;;;76.75;8.75;;;;;;;;;;5005923;28;20033;-39
2024/01/19 02:57:39;;;;;;;65.72;8.00;;;;;;;;;;5005636;28;20038;-38
2024/01/19 03:00:07;;;;;;;165.02;19.20;;;;;;;;;;4993496;28;20061;-38
2024/01/19 03:02:34;;;;;;;189.07;20.48;;;;;;;;;;5012144;28;20068;-39
2024/01/19 03:05:02;;;;;;;198.57;22.08;;;;;;;;;;5010442;28;20030;-38
2024/01/19 03:07:29;;;;;;;458.83;49.03;;;;;;;;;;5010640;28;20026;-38
2024/01/19 03:09:56;;;;;;;386.23;42.53;;;;;;;;;;5010985;28;20031;-38
2024/01/19 03:12:23;;;;;;;271.70;36.85;;;;;;;;;;4991257;28;20038;-38
2024/01/19 03:14:50;;;;;;;174.23;26.67;;;;;;;;;;5000509;28;20037;-38
2024/01/19 03:17:17;;;;;;;144.55;26.48;;;;;;;;;;5011583;28;20029;-39
2024/01/19 03:19:45;;;;;;;153.35;25.48;;;;;;;;;;5011861;28;20034;-37
2024/01/19 03:22:12;;;;;;;152.80;24.40;;;;;;;;;;4999551;28;20030;-37
2024/01/19 03:24:39;;;;;;;119.03;19.95;;;;;;;;;;5001911;28;20062;-37
2024/01/19 03:27:06;;;;;;;119.28;20.73;;;;;;;;;;5009762;28;20034;-37
2024/01/19 03:29:33;;;;;;;118.20;18.40;;;;;;;;;;5009554;28;20037;-38
2024/01/19 03:32:00;;;;;;;113.65;15.98;;;;;;;;;;5010997;28;20080;-37
2024/01/19 03:34:28;;;;;;;148.23;18.70;;;;;;;;;;5010742;28;20022;-37
2024/01/19 03:36:55;;;;;;;134.88;17.80;;;;;;;;;;5010709;28;20030;-39
2024/01/19 03:39:24;;;;;;;115.10;15.60;;;;;;;;;;5011257;28;20026;-38
2024/01/19 03:41:51;;;;;;;138.45;17.77;;;;;;;;;;5010146;28;20040;-39
2024/01/19 03:44:18;;;;;;;167.45;21.38;;;;;;;;;;5009412;28;20500;-39
2024/01/19 03:46:45;;;;;;;351.67;36.50;;;;;;;;;;5011415;28;20034;-39
2024/01/19 03:49:15;;;;;;;303.17;35.55;;;;;;;;;;5011216;28;20055;-39
2024/01/19 03:52:01;;;;;;;925.15;104.40;;;;;;;;;;5011510;28;20451;-38
2024/01/19 03:54:28;;;;;;;1044.05;119.47;;;;;;;;;;5010027;28;20032;-39
2024/01/19 03:56:57;;;;;;;865.50;96.07;;;;;;;;;;5011487;28;20033;-39
2024/01/19 03:59:24;;;;;;;755.75;86.85;;;;;;;;;;5014695;23;20088;-41
2024/01/19 04:01:51;;;;;;;767.72;88.03;;;;;;;;;;5004320;28;20491;-41
2024/01/19 04:04:18;;;;;;;743.42;82.65;;;;;;;;;;5000279;28;20083;-41
2024/01/19 04:06:46;;;;;;;596.22;65.20;;;;;;;;;;4998695;28;20061;-41
2024/01/19 04:09:15;;;;;;;368.30;41.05;;;;;;;;;;4998081;28;20109;-41
2024/01/19 04:11:43;;;;;;;322.30;31.08;;;;;;;;;;5003354;28;20041;-41
2024/01/19 04:14:10;;;;;;;285.60;33.92;;;;;;;;;;5003258;28;20032;-41
2024/01/19 04:16:38;;;;;;;362.70;43.03;;;;;;;;;;5000702;28;20018;-40
2024/01/19 04:19:05;;;;;;;332.85;36.72;;;;;;;;;;4997258;28;20408;-41
2024/01/19 04:21:32;;;;;;;301.55;35.50;;;;;;;;;;5001771;28;20762;-41
2024/01/19 04:23:59;;;;;;;328.73;37.53;;;;;;;;;;5003085;28;20475;-41
2024/01/19 04:26:27;;;;;;;302.02;34.50;;;;;;;;;;5003659;28;20022;-41
2024/01/19 04:28:55;;;;;;;242.23;26.45;;;;;;;;;;5002104;28;20029;-41
2024/01/19 04:31:22;;;;;;;248.07;26.55;;;;;;;;;;5001131;28;20034;-41
2024/01/19 04:33:49;;;;;;;497.73;54.47;;;;;;;;;;5002106;28;20077;-41
2024/01/19 04:36:17;;;;;;;346.05;38.55;;;;;;;;;;5000360;28;20480;-41
2024/01/19 04:38:45;;;;;;;281.67;28.98;;;;;;;;;;5001331;28;20041;-41
2024/01/19 04:41:12;;;;;;;210.27;23.40;;;;;;;;;;4998448;28;20499;-41
2024/01/19 04:43:39;;;;;;;153.98;18.35;;;;;;;;;;5006197;28;20092;-42
2024/01/19 04:46:06;;;;;;;155.82;16.20;;;;;;;;;;4987615;28;20036;-41
2024/01/19 04:48:33;;;;;;;126.10;15.27;;;;;;;;;;4999700;28;20030;-41
2024/01/19 04:51:00;;;;;;;314.38;32.10;;;;;;;;;;5007285;28;20092;-41
2024/01/19 04:53:27;;;;;;;216.10;21.65;;;;;;;;;;5004353;28;20058;-41
2024/01/19 04:55:54;;;;;;;249.60;25.35;;;;;;;;;;5009283;28;20649;-41
2024/01/19 04:58:21;;;;;;;197.20;21.33;;;;;;;;;;4999641;28;20049;-41
2024/01/19 05:00:47;;;;;;;162.23;19.77;;;;;;;;;;4999961;28;20084;-41
2024/01/19 05:03:14;;;;;;;200.60;22.60;;;;;;;;;;5002124;28;20565;-41
2024/01/19 05:05:41;;;;;;;133.00;16.63;;;;;;;;;;4999726;28;20064;-39
2024/01/19 05:08:08;;;;;;;95.25;13.25;;;;;;;;;;4998967;28;20027;-38
2024/01/19 05:10:35;;;;;;;88.75;11.35;;;;;;;;;;4993591;28;20489;-38
2024/01/19 05:13:03;;;;;;;115.20;14.18;;;;;;;;;;4997777;28;20860;-39
2024/01/19 05:15:30;;;;;;;223.68;23.00;;;;;;;;;;5005330;28;20113;-39
2024/01/19 05:17:57;;;;;;;175.25;20.02;;;;;;;;;;5004103;28;20472;-39
2024/01/19 05:20:24;;;;;;;190.13;20.13;;;;;;;;;;5004992;28;20529;-39
2024/01/19 05:22:51;;;;;;;145.85;17.58;;;;;;;;;;5003198;28;20069;-39
2024/01/19 05:25:18;;;;;;;139.30;17.15;;;;;;;;;;5005963;28;20476;-38
2024/01/19 05:27:45;;;;;;;133.35;14.68;;;;;;;;;;5003791;28;20384;-39
2024/01/19 05:30:13;;;;;;;113.90;14.18;;;;;;;;;;5004049;28;20035;-38
2024/01/19 05:32:41;;;;;;;145.45;16.27;;;;;;;;;;5004549;28;20026;-38
2024/01/19 05:35:08;;;;;;;114.43;13.35;;;;;;;;;;5005728;28;20108;-39
2024/01/19 05:37:35;;;;;;;89.18;11.90;;;;;;;;;;5004289;28;20034;-39
2024/01/19 05:40:03;;;;;;;69.30;10.52;;;;;;;;;;5003851;28;20168;-38
2024/01/19 05:42:30;;;;;;;89.32;10.32;;;;;;;;;;5005723;28;20025;-39
2024/01/19 05:44:57;;;;;;;65.90;8.95;;;;;;;;;;5004560;28;20022;-38
2024/01/19 05:47:25;;;;;;;52.70;7.35;;;;;;;;;;4996025;28;20033;-39
2024/01/19 05:49:52;;;;;;;62.83;7.82;;;;;;;;;;5003619;28;20034;-39
2024/01/19 05:52:19;;;;;;;50.17;6.85;;;;;;;;;;5004256;28;20453;-39
2024/01/19 05:54:47;;;;;;;47.28;6.10;;;;;;;;;;5005398;28;20052;-39
2024/01/19 05:57:14;;;;;;;48.35;5.88;;;;;;;;;;5003905;28;20023;-39
2024/01/19 05:59:41;;;;;;;64.95;6.50;;;;;;;;;;5003739;28;20045;-39
2024/01/19 06:02:08;;;;;;;70.13;8.80;;;;;;;;;;5001165;28;20058;-38
2024/01/19 06:04:40;;;;;;;57.95;6.32;;;;;;;;;;5004662;28;20017;-39
2024/01/19 06:07:07;;;;;;;52.33;6.20;;;;;;;;;;5005277;28;20018;-38
2024/01/19 06:09:34;;;;;;;47.55;5.68;;;;;;;;;;5001922;28;20593;-39
2024/01/19 06:12:02;;;;;;;42.80;5.22;;;;;;;;;;5001207;28;20030;-39
2024/01/19 06:14:29;;;;;;;42.97;5.10;;;;;;;;;;4994810;28;20491;-38
2024/01/19 06:16:56;;;;;;;48.75;4.78;;;;;;;;;;4994936;28;20026;-38
2024/01/19 06:19:23;;;;;;;46.78;4.63;;;;;;;;;;4994823;28;20085;-38
2024/01/19 06:21:50;;;;;;;35.65;4.30;;;;;;;;;;4994950;28;20034;-38
2024/01/19 06:24:17;;;;;;;35.65;4.15;;;;;;;;;;4994430;28;20030;-39
2024/01/19 06:26:48;;;;;;;37.72;4.50;;;;;;;;;;4994565;28;20361;-39
2024/01/19 06:29:15;;;;;;;29.38;4.30;;;;;;;;;;4991275;28;20045;-38
2024/01/19 06:31:48;;;;;;;21.20;3.53;;;;;;;;;;4994580;28;20030;-40
2024/01/19 06:34:15;;;;;;;27.13;3.72;;;;;;;;;;4994425;28;20030;-39
2024/01/19 06:36:46;;;;;;;24.63;3.72;;;;;;;;;;4994442;28;20034;-39
2024/01/19 06:39:13;;;;;;;25.00;3.58;;;;;;;;;;4999802;28;20384;-39
2024/01/19 06:41:46;;;;;;;28.02;3.55;;;;;;;;;;5002788;28;20073;-39
2024/01/19 06:44:13;;;;;;;30.75;3.80;;;;;;;;;;4992905;28;20057;-39
2024/01/19 06:46:46;;;;;;;35.28;4.10;;;;;;;;;;4994360;28;20027;-39
2024/01/19 06:49:14;;;;;;;33.05;3.45;;;;;;;;;;4994180;28;20030;-39
2024/01/19 06:51:41;;;;;;;22.67;3.55;;;;;;;;;;4994214;28;20210;-38
2024/01/19 06:54:08;;;;;;;35.55;3.50;;;;;;;;;;4994210;28;20094;-38
2024/01/19 06:56:35;;;;;;;25.73;3.20;;;;;;;;;;4994214;28;20034;-39
2024/01/19 06:59:02;;;;;;;31.55;3.63;;;;;;;;;;4993877;28;20034;-39
2024/01/19 07:01:29;;;;;;;24.73;3.33;;;;;;;;;;4993960;28;20370;-38
2024/01/19 07:03:56;;;;;;;38.92;4.43;;;;;;;;;;4976527;28;20034;-38
2024/01/19 07:06:23;;;;;;;44.63;4.43;;;;;;;;;;4993956;28;20029;-38
2024/01/19 07:08:50;;;;;;;40.00;4.78;;;;;;;;;;4993950;28;20022;-38
2024/01/19 07:11:18;;;;;;;38.15;4.80;;;;;;;;;;4993847;28;20022;-38
2024/01/19 07:13:45;;;;;;;45.72;4.97;;;;;;;;;;4993928;28;20085;-38
2024/01/19 07:16:12;;;;;;;24.77;3.83;;;;;;;;;;4976271;28;20386;-39
2024/01/19 07:18:39;;;;;;;30.60;4.00;;;;;;;;;;4993663;28;20416;-38
2024/01/19 07:21:06;;;;;;;28.63;4.07;;;;;;;;;;4993734;28;20058;-38
2024/01/19 07:23:33;;;;;;;30.35;3.72;;;;;;;;;;4993547;28;20026;-38
2024/01/19 07:26:00;;;;;;;25.58;3.45;;;;;;;;;;4993585;28;20030;-38
2024/01/19 07:28:27;;;;;;;30.70;4.03;;;;;;;;;;4993482;28;20034;-38
2024/01/19 07:30:53;;;;;;;34.35;4.63;;;;;;;;;;4993631;28;20030;-38
2024/01/19 07:33:20;;;;;;;33.00;4.18;;;;;;;;;;4975431;28;20093;-39
2024/01/19 07:35:47;;;;;;;35.47;5.18;;;;;;;;;;4993490;28;20040;-38
2024/01/19 07:38:14;;;;;;;34.20;6.05;;;;;;;;;;4993417;28;20036;-38
2024/01/19 07:40:41;;;;;;;39.15;6.03;;;;;;;;;;4993194;28;20472;-38
2024/01/19 07:43:08;;;;;;;38.50;10.02;;;;;;;;;;4975799;28;20034;-38
2024/01/19 07:45:35;;;;;;;43.75;12.38;;;;;;;;;;4993277;28;20061;-38
2024/01/19 07:48:02;;;;;;;45.15;15.32;;;;;;;;;;4993238;28;20034;-38
2024/01/19 07:50:29;;;;;;;65.60;20.65;;;;;;;;;;4993021;28;20037;-38
2024/01/19 07:52:56;;;;;;;77.38;27.20;;;;;;;;;;4993029;28;20475;-38
2024/01/19 07:55:23;;;;;;;88.80;30.88;;;;;;;;;;4992994;28;20038;-38
2024/01/19 07:57:50;;;;;;;86.03;31.52;;;;;;;;;;4993009;28;20122;-38
2024/01/19 08:00:17;;;;;;;81.35;33.13;;;;;;;;;;4992733;28;20046;-38
2024/01/19 08:02:46;;;;;;;87.80;33.65;;;;;;;;;;4992905;28;20092;-38
2024/01/19 08:05:14;;;;;;;104.40;36.95;;;;;;;;;;4992895;28;20439;-38
2024/01/19 08:07:41;;;;;;;85.00;33.28;;;;;;;;;;4992740;28;20049;-38
2024/01/19 08:10:08;;;;;;;107.57;38.78;;;;;;;;;;4992751;28;20109;-38
2024/01/19 08:12:35;;;;;;;84.35;37.78;;;;;;;;;;4992701;28;20052;-38
2024/01/19 08:15:02;;;;;;;105.25;41.30;;;;;;;;;;4992700;28;20074;-38
2024/01/19 08:17:30;;;;;;;86.78;41.38;;;;;;;;;;4992682;28;20018;-38
2024/01/19 08:19:56;;;;;;;103.45;43.35;;;;;;;;;;4992426;28;20084;-38
2024/01/19 08:22:23;;;;;;;105.45;46.03;;;;;;;;;;4992583;28;20500;-38
2024/01/19 08:24:50;;;;;;;104.53;44.72;;;;;;;;;;4992606;28;20022;-38
2024/01/19 08:27:17;;;;;;;92.63;44.63;;;;;;;;;;4992551;28;20029;-38
2024/01/19 08:29:47;;;;;;;113.03;47.25;;;;;;;;;;4992427;28;20054;-38
2024/01/19 08:32:14;;;;;;;97.18;45.13;;;;;;;;;;4992356;28;20040;-38
2024/01/19 08:34:43;;;;;;;101.30;40.47;;;;;;;;;;4992429;28;20034;-39
2024/01/19 08:37:10;;;;;;;94.15;36.17;;;;;;;;;;4992367;28;20076;-39
2024/01/19 08:39:38;;;;;;;77.57;32.35;;;;;;;;;;4992266;28;20573;-39
2024/01/19 08:42:06;;;;;;;75.15;30.85;;;;;;;;;;4992272;28;20041;-39
2024/01/19 08:44:33;;;;;;;72.82;27.42;;;;;;;;;;4991458;28;20088;-38
2024/01/19 08:47:00;;;;;;;69.40;25.38;;;;;;;;;;4992334;28;20492;-39
2024/01/19 08:49:27;;;;;;;65.90;23.80;;;;;;;;;;4992181;28;20093;-38
2024/01/19 08:51:54;;;;;;;49.53;20.55;;;;;;;;;;4992270;28;20042;-38
2024/01/19 08:54:21;;;;;;;84.38;20.27;;;;;;;;;;4992153;28;20030;-39
2024/01/19 08:56:48;;;;;;;70.25;18.05;;;;;;;;;;4992201;28;20039;-39
2024/01/19 08:59:17;;;;;;;66.07;16.02;;;;;;;;;;4991973;28;20046;-39
2024/01/19 09:01:46;;;;;;;78.63;16.52;;;;;;;;;;4992039;28;20073;-39
2024/01/19 09:04:13;;;;;;;94.53;17.77;;;;;;;;;;4992174;28;20038;-39
2024/01/19 09:06:40;;;;;;;65.53;14.43;;;;;;;;;;4991996;28;20026;-39
2024/01/19 09:09:08;;;;;;;63.80;12.32;;;;;;;;;;4992057;28;20030;-39
2024/01/19 09:11:35;;;;;;;56.67;11.55;;;;;;;;;;4991892;28;20057;-39
2024/01/19 09:14:02;;;;;;;50.00;10.10;;;;;;;;;;4992352;28;20070;-39
2024/01/19 09:16:29;;;;;;;56.47;9.48;;;;;;;;;;4974796;28;20468;-39
2024/01/19 09:18:56;;;;;;;67.63;10.23;;;;;;;;;;4991916;28;20038;-38
2024/01/19 09:21:23;;;;;;;84.00;11.52;;;;;;;;;;4992040;28;20034;-39
2024/01/19 09:23:50;;;;;;;67.00;8.93;;;;;;;;;;4992032;28;20103;-39
2024/01/19 09:26:20;;;;;;;62.38;8.98;;;;;;;;;;4991936;28;20038;-39
2024/01/19 09:28:47;;;;;;;45.60;7.65;;;;;;;;;;4991880;28;20026;-38
2024/01/19 09:31:15;;;;;;;43.13;6.20;;;;;;;;;;4991566;28;20080;-38
2024/01/19 09:33:42;;;;;;;65.22;7.65;;;;;;;;;;4991935;28;20252;-38
2024/01/19 09:36:09;;;;;;;67.97;8.20;;;;;;;;;;4991982;28;20547;-39
2024/01/19 09:38:37;;;;;;;62.83;8.10;;;;;;;;;;4991856;28;20105;-39
2024/01/19 09:41:24;;;;;;;58.90;7.15;;;;;;;;;;4992251;28;20034;-39
2024/01/19 09:43:55;;;;;;;48.40;7.25;;;;;;;;;;4981679;28;20121;-39
2024/01/19 09:46:27;;;;;;;89.00;9.40;;;;;;;;;;4991728;28;20476;-39
2024/01/19 09:49:08;;;;;;;137.32;13.73;;;;;;;;;;4991649;28;20109;-39
2024/01/19 09:51:47;;;;;;;92.03;10.68;;;;;;;;;;4991652;28;20030;-39
2024/01/19 09:54:17;;;;;;;85.68;8.82;;;;;;;;;;4991824;28;20062;-38
2024/01/19 09:56:44;;;;;;;66.25;7.38;;;;;;;;;;4993816;28;20050;-39
2024/01/19 09:59:11;;;;;;;61.80;6.97;;;;;;;;;;4995017;28;20065;-39
2024/01/19 10:01:38;;;;;;;48.17;5.85;;;;;;;;;;4995170;28;20121;-39
2024/01/19 10:04:10;;;;;;;44.83;5.90;;;;;;;;;;4995146;28;20026;-39
2024/01/19 10:06:37;;;;;;;58.25;7.07;;;;;;;;;;4995066;28;20097;-39
2024/01/19 10:09:05;;;;;;;150.25;14.15;;;;;;;;;;4994934;28;20026;-39
2024/01/19 10:11:33;;;;;;;139.80;14.02;;;;;;;;;;4995053;28;20054;-38
2024/01/19 10:14:00;;;;;;;122.55;13.98;;;;;;;;;;5000029;28;20033;-39
2024/01/19 10:16:27;;;;;;;144.50;15.18;;;;;;;;;;5014483;28;20782;-39
2024/01/19 10:18:54;;;;;;;119.85;13.77;;;;;;;;;;5014462;28;20022;-39
2024/01/19 10:21:30;;;;;;;120.80;12.88;;;;;;;;;;5014436;28;20029;-39
2024/01/19 10:24:20;;;;;;;125.13;13.80;;;;;;;;;;5014494;28;20024;-39
2024/01/19 10:26:54;;;;;;;106.05;12.82;;;;;;;;;;5014382;28;20025;-39
2024/01/19 10:29:21;;;;;;;90.55;12.23;;;;;;;;;;5014451;28;20475;-39
2024/01/19 10:31:55;;;;;;;90.07;10.48;;;;;;;;;;5005321;28;20509;-39
2024/01/19 10:34:23;;;;;;;144.27;17.75;;;;;;;;;;4997242;28;20100;-39
2024/01/19 10:36:50;;;;;;;123.72;15.20;;;;;;;;;;4994256;28;20396;-39
2024/01/19 10:39:20;;;;;;;115.30;20.17;;;;;;;;;;4994327;28;20065;-38
2024/01/19 10:41:48;;;;;;;118.75;21.50;;;;;;;;;;4994409;28;20026;-38
2024/01/19 10:44:16;;;;;;;108.88;20.38;;;;;;;;;;4994482;28;20031;-38
2024/01/19 10:46:44;;;;;;;105.85;21.42;;;;;;;;;;4994365;28;20034;-38
2024/01/19 10:49:12;;;;;;;102.43;22.05;;;;;;;;;;4993911;28;20133;-38
2024/01/19 10:51:40;;;;;;;98.45;20.60;;;;;;;;;;4998834;28;20492;-39
2024/01/19 10:54:10;;;;;;;88.20;22.70;;;;;;;;;;5005828;28;20117;-38
2024/01/19 10:56:38;;;;;;;91.20;20.08;;;;;;;;;;4996131;28;20124;-38
2024/01/19 10:59:12;;;;;;;87.57;19.95;;;;;;;;;;5008663;28;20054;-38
2024/01/19 11:01:39;;;;;;;77.05;17.77;;;;;;;;;;4998181;28;20541;-40
2024/01/19 11:04:08;;;;;;;81.63;16.25;;;;;;;;;;5005261;28;20032;-38
2024/01/19 11:06:38;;;;;;;74.18;14.60;;;;;;;;;;5003891;28;20026;-39
2024/01/19 11:09:06;;;;;;;70.85;13.35;;;;;;;;;;4995452;28;20072;-38
2024/01/19 11:11:51;;;;;;;66.57;12.13;;;;;;;;;;4993576;28;20034;-39
2024/01/19 11:14:19;;;;;;;66.50;11.45;;;;;;;;;;4993627;28;20032;-39
2024/01/19 11:16:49;;;;;;;79.97;11.35;;;;;;;;;;4997951;28;20038;-38
2024/01/19 11:19:17;;;;;;;79.45;11.05;;;;;;;;;;5007309;28;20038;-39
2024/01/19 11:21:44;;;;;;;62.38;9.52;;;;;;;;;;4999836;28;20045;-38
2024/01/19 11:24:14;;;;;;;65.10;9.35;;;;;;;;;;4996184;28;20055;-37
2024/01/19 11:26:50;;;;;;;140.05;11.00;;;;;;;;;;4999794;28;20065;-35
2024/01/19 11:29:22;;;;;;;109.32;10.65;;;;;;;;;;5002514;28;20554;-37
2024/01/19 11:31:50;;;;;;;66.03;7.85;;;;;;;;;;5003590;28;20102;-34
2024/01/19 11:34:37;;;;;;;49.97;6.10;;;;;;;;;;5001505;28;20026;-33
2024/01/19 11:37:04;;;;;;;38.10;4.45;;;;;;;;;;4986450;28;20037;-33
2024/01/19 11:39:40;;;;;;;36.70;4.78;;;;;;;;;;5003500;28;20117;-34
2024/01/19 11:42:30;;;;;;;22.40;3.10;;;;;;;;;;5002816;28;20038;-33
2024/01/19 11:44:57;;;;;;;27.45;2.85;;;;;;;;;;4999047;28;20046;-33
2024/01/19 11:47:37;;;;;;;23.40;2.70;;;;;;;;;;5007877;28;20037;-33
2024/01/19 11:50:04;;;;;;;58.05;6.28;;;;;;;;;;5009452;28;20041;-34
2024/01/19 11:52:35;;;;;;;318.90;27.55;;;;;;;;;;5008833;28;20042;-33
2024/01/19 11:55:20;;;;;;;161.10;13.45;;;;;;;;;;5004590;28;20038;-33
2024/01/19 11:57:47;;;;;;;116.43;9.90;;;;;;;;;;4992761;28;20069;-33
2024/01/19 12:00:15;;;;;;;107.40;7.53;;;;;;;;;;4997286;28;20515;-34
2024/01/19 12:02:42;;;;;;;60.00;5.53;;;;;;;;;;4992877;28;20060;-35
2024/01/19 12:05:09;;;;;;;46.70;4.15;;;;;;;;;;4996670;28;20037;-36
2024/01/19 12:07:36;;;;;;;35.92;4.20;;;;;;;;;;5002725;28;20109;-35
2024/01/19 12:10:18;;;;;;;30.83;4.07;;;;;;;;;;5008481;28;20539;-34
2024/01/19 12:12:49;;;;;;;59.90;4.32;;;;;;;;;;4992720;28;20089;-38
2024/01/19 12:15:17;;;;;;;31.45;3.70;;;;;;;;;;5012055;28;20026;-35
2024/01/19 12:17:45;;;;;;;36.40;3.72;;;;;;;;;;4998939;28;20458;-38
2024/01/19 12:20:16;;;;;;;53.97;7.13;;;;;;;;;;5007931;28;20029;-37
2024/01/19 12:22:46;;;;;;;103.15;9.43;;;;;;;;;;5006756;28;20483;-37
2024/01/19 12:25:13;;;;;;;106.97;11.57;;;;;;;;;;5000624;28;20030;-37
2024/01/19 12:27:40;;;;;;;81.97;8.82;;;;;;;;;;5009621;28;20129;-37
2024/01/19 12:30:11;;;;;;;72.35;6.30;;;;;;;;;;4992386;28;20515;-38
2024/01/19 12:32:38;;;;;;;56.00;6.20;;;;;;;;;;4992182;28;20124;-37
2024/01/19 12:35:05;;;;;;;30.23;3.90;;;;;;;;;;5002050;28;20065;-37
2024/01/19 12:37:35;;;;;;;28.40;3.78;;;;;;;;;;5007525;28;20050;-37
2024/01/19 12:40:16;;;;;;;25.40;2.92;;;;;;;;;;5002728;28;20112;-37
2024/01/19 12:42:43;;;;;;;19.67;2.65;;;;;;;;;;5011655;28;20092;-37
2024/01/19 12:45:13;;;;;;;16.55;2.40;;;;;;;;;;4998867;28;20113;-37
2024/01/19 12:47:44;;;;;;;21.70;3.05;;;;;;;;;;4999316;28;20128;-37
2024/01/19 12:50:11;;;;;;;41.92;3.55;;;;;;;;;;5011361;28;20030;-37
2024/01/19 12:52:38;;;;;;;25.20;3.00;;;;;;;;;;5009109;28;20029;-37
2024/01/19 12:55:06;;;;;;;26.25;3.15;;;;;;;;;;5009422;28;20034;-38
2024/01/19 12:57:33;;;;;;;21.20;3.05;;;;;;;;;;5011321;28;20038;-37
2024/01/19 13:00:08;;;;;;;20.50;2.40;;;;;;;;;;5010993;28;20136;-38
2024/01/19 13:02:35;;;;;;;21.13;2.22;;;;;;;;;;5007068;28;20380;-38
2024/01/19 13:05:02;;;;;;;18.88;2.45;;;;;;;;;;5003015;28;20028;-37
2024/01/19 13:07:29;;;;;;;17.00;2.47;;;;;;;;;;5011201;28;20032;-37
2024/01/19 13:10:05;;;;;;;21.02;2.78;;;;;;;;;;5011143;28;20387;-37
2024/01/19 13:12:35;;;;;;;18.23;2.38;;;;;;;;;;5011384;28;20100;-37
2024/01/19 13:15:11;;;;;;;17.42;2.85;;;;;;;;;;5001303;28;20062;-37
2024/01/19 13:17:39;;;;;;;22.05;2.67;;;;;;;;;;5009848;28;20073;-38
2024/01/19 13:20:11;;;;;;;18.88;2.30;;;;;;;;;;4999386;28;20672;-37
2024/01/19 13:22:41;;;;;;;11.05;2.55;;;;;;;;;;5006826;28;20056;-37
2024/01/19 13:25:08;;;;;;;18.17;2.72;;;;;;;;;;5009519;28;20033;-38
2024/01/19 13:27:35;;;;;;;18.02;2.55;;;;;;;;;;5004505;28;20121;-37
2024/01/19 13:30:03;;;;;;;13.77;2.20;;;;;;;;;;4998100;28;20034;-37
2024/01/19 13:32:30;;;;;;;20.42;2.70;;;;;;;;;;5014402;28;20368;-37
2024/01/19 13:34:57;;;;;;;22.42;2.30;;;;;;;;;;5014973;28;20065;-37
2024/01/19 13:37:24;;;;;;;19.67;2.55;;;;;;;;;;5014924;28;20460;-37
2024/01/19 13:39:54;;;;;;;26.98;2.15;;;;;;;;;;5014972;28;20030;-37
2024/01/19 13:42:23;;;;;;;18.08;2.17;;;;;;;;;;5014697;28;20033;-37
2024/01/19 13:44:50;;;;;;;15.50;2.20;;;;;;;;;;5002812;28;20033;-37
2024/01/19 13:47:17;;;;;;;21.35;2.75;;;;;;;;;;5010513;28;20432;-37
2024/01/19 13:49:44;;;;;;;18.25;2.40;;;;;;;;;;5014583;28;20128;-37
2024/01/19 13:52:11;;;;;;;23.20;2.63;;;;;;;;;;5014327;28;20046;-37
2024/01/19 13:54:38;;;;;;;21.85;2.70;;;;;;;;;;5011536;28;20476;-38
2024/01/19 13:57:05;;;;;;;22.27;2.75;;;;;;;;;;5014725;28;20499;-37
2024/01/19 13:59:32;;;;;;;18.05;2.58;;;;;;;;;;5014453;28;20104;-37
2024/01/19 14:01:59;;;;;;;22.42;2.50;;;;;;;;;;5014533;28;20044;-38
2024/01/19 14:04:27;;;;;;;13.40;2.20;;;;;;;;;;5014417;28;20038;-39
2024/01/19 14:06:54;;;;;;;16.63;1.88;;;;;;;;;;5000969;28;20049;-37
2024/01/19 14:09:21;;;;;;;16.92;2.10;;;;;;;;;;5014256;28;20081;-37
2024/01/19 14:11:49;;;;;;;14.15;2.20;;;;;;;;;;4998707;28;20026;-37
2024/01/19 14:14:16;;;;;;;13.05;1.70;;;;;;;;;;5004152;28;20037;-37
2024/01/19 14:16:43;;;;;;;13.27;1.70;;;;;;;;;;5013876;28;20057;-37
2024/01/19 14:19:10;;;;;;;32.42;2.97;;;;;;;;;;5014081;28;20033;-38
2024/01/19 14:21:38;;;;;;;14.10;1.70;;;;;;;;;;5009767;28;20019;-38